sensor_id;sensor_type;location;lat;lon;timestamp;P1;durP1;ratioP1;P2;durP2;ratioP2
67164;SDS011;54093;50.014;19.984;2023-12-20T00:02:59;9.48;;;5.38;;
67164;SDS011;54093;50.014;19.984;2023-12-20T00:12:20;10.13;;;5.55;;
67164;SDS011;54093;50.014;19.984;2023-12-20T00:21:41;7.55;;;6.32;;
67164;SDS011;54093;50.014;19.984;2023-12-20T00:31:03;11.43;;;5.07;;
67164;SDS011;54093;50.014;19.984;2023-12-20T00:40:24;10.25;;;6.55;;
67164;SDS011;54093;50.014;19.984;2023-12-20T00:49:45;11.23;;;6.35;;
67164;SDS011;54093;50.014;19.984;2023-12-20T00:59:06;11.70;;;5.45;;
67164;SDS011;54093;50.014;19.984;2023-12-20T01:08:27;18.20;;;5.55;;
67164;SDS011;54093;50.014;19.984;2023-12-20T01:17:48;7.88;;;5.13;;
67164;SDS011;54093;50.014;19.984;2023-12-20T01:27:10;10.80;;;5.90;;
67164;SDS011;54093;50.014;19.984;2023-12-20T01:36:31;10.55;;;5.95;;
67164;SDS011;54093;50.014;19.984;2023-12-20T01:45:52;17.55;;;7.25;;
67164;SDS011;54093;50.014;19.984;2023-12-20T01:55:13;7.95;;;5.40;;
67164;SDS011;54093;50.014;19.984;2023-12-20T02:04:36;8.63;;;5.13;;
67164;SDS011;54093;50.014;19.984;2023-12-20T02:13:57;12.60;;;6.35;;
67164;SDS011;54093;50.014;19.984;2023-12-20T02:23:18;6.68;;;4.35;;
67164;SDS011;54093;50.014;19.984;2023-12-20T02:32:39;10.32;;;6.38;;
67164;SDS011;54093;50.014;19.984;2023-12-20T02:42:00;9.05;;;4.70;;
67164;SDS011;54093;50.014;19.984;2023-12-20T02:51:21;5.70;;;3.78;;
67164;SDS011;54093;50.014;19.984;2023-12-20T03:00:42;5.55;;;3.67;;
67164;SDS011;54093;50.014;19.984;2023-12-20T03:10:03;3.72;;;3.53;;
67164;SDS011;54093;50.014;19.984;2023-12-20T03:19:24;2.83;;;2.65;;
67164;SDS011;54093;50.014;19.984;2023-12-20T03:28:45;2.78;;;2.58;;
67164;SDS011;54093;50.014;19.984;2023-12-20T03:38:06;5.40;;;3.40;;
67164;SDS011;54093;50.014;19.984;2023-12-20T03:47:28;2.42;;;2.17;;
67164;SDS011;54093;50.014;19.984;2023-12-20T03:56:49;3.13;;;2.85;;
67164;SDS011;54093;50.014;19.984;2023-12-20T04:06:09;3.10;;;2.55;;
67164;SDS011;54093;50.014;19.984;2023-12-20T04:15:30;1.92;;;1.83;;
67164;SDS011;54093;50.014;19.984;2023-12-20T04:24:52;2.75;;;2.55;;
67164;SDS011;54093;50.014;19.984;2023-12-20T04:34:13;3.10;;;2.90;;
67164;SDS011;54093;50.014;19.984;2023-12-20T04:43:34;2.00;;;1.80;;
67164;SDS011;54093;50.014;19.984;2023-12-20T04:52:55;2.17;;;2.08;;
67164;SDS011;54093;50.014;19.984;2023-12-20T05:02:16;2.38;;;2.22;;
67164;SDS011;54093;50.014;19.984;2023-12-20T05:11:37;2.20;;;2.08;;
67164;SDS011;54093;50.014;19.984;2023-12-20T05:20:58;1.85;;;1.75;;
67164;SDS011;54093;50.014;19.984;2023-12-20T05:30:19;2.05;;;1.75;;
67164;SDS011;54093;50.014;19.984;2023-12-20T05:39:40;2.70;;;2.50;;
67164;SDS011;54093;50.014;19.984;2023-12-20T05:49:01;3.05;;;2.85;;
67164;SDS011;54093;50.014;19.984;2023-12-20T05:58:23;3.35;;;2.20;;
67164;SDS011;54093;50.014;19.984;2023-12-20T06:07:44;2.30;;;2.10;;
67164;SDS011;54093;50.014;19.984;2023-12-20T06:17:07;2.35;;;2.15;;
67164;SDS011;54093;50.014;19.984;2023-12-20T06:26:28;2.42;;;2.30;;
67164;SDS011;54093;50.014;19.984;2023-12-20T06:35:49;3.22;;;2.92;;
67164;SDS011;54093;50.014;19.984;2023-12-20T06:45:10;3.05;;;1.98;;
67164;SDS011;54093;50.014;19.984;2023-12-20T06:54:32;2.70;;;2.50;;
67164;SDS011;54093;50.014;19.984;2023-12-20T07:03:55;2.47;;;2.38;;
67164;SDS011;54093;50.014;19.984;2023-12-20T07:13:16;2.45;;;2.35;;
67164;SDS011;54093;50.014;19.984;2023-12-20T07:22:37;8.15;;;2.92;;
67164;SDS011;54093;50.014;19.984;2023-12-20T07:31:58;2.55;;;2.30;;
67164;SDS011;54093;50.014;19.984;2023-12-20T07:41:19;2.97;;;2.65;;
67164;SDS011;54093;50.014;19.984;2023-12-20T07:50:42;4.10;;;3.80;;
67164;SDS011;54093;50.014;19.984;2023-12-20T08:00:03;4.75;;;4.25;;
67164;SDS011;54093;50.014;19.984;2023-12-20T08:09:26;5.35;;;3.17;;
67164;SDS011;54093;50.014;19.984;2023-12-20T08:18:47;4.60;;;4.13;;
67164;SDS011;54093;50.014;19.984;2023-12-20T08:28:08;3.80;;;3.25;;
67164;SDS011;54093;50.014;19.984;2023-12-20T08:37:31;4.97;;;4.57;;
67164;SDS011;54093;50.014;19.984;2023-12-20T08:46:52;4.95;;;4.55;;
67164;SDS011;54093;50.014;19.984;2023-12-20T08:56:13;3.08;;;2.90;;
67164;SDS011;54093;50.014;19.984;2023-12-20T09:05:34;3.17;;;2.97;;
67164;SDS011;54093;50.014;19.984;2023-12-20T09:14:56;4.05;;;2.75;;
67164;SDS011;54093;50.014;19.984;2023-12-20T09:24:17;2.60;;;2.50;;
67164;SDS011;54093;50.014;19.984;2023-12-20T09:33:38;1.88;;;1.88;;
67164;SDS011;54093;50.014;19.984;2023-12-20T09:43:06;3.03;;;2.78;;
67164;SDS011;54093;50.014;19.984;2023-12-20T09:52:41;2.45;;;2.35;;
67164;SDS011;54093;50.014;19.984;2023-12-20T10:02:03;3.15;;;2.95;;
67164;SDS011;54093;50.014;19.984;2023-12-20T10:11:29;3.85;;;3.05;;
67164;SDS011;54093;50.014;19.984;2023-12-20T10:20:50;2.03;;;1.92;;
67164;SDS011;54093;50.014;19.984;2023-12-20T10:30:12;4.20;;;3.30;;
67164;SDS011;54093;50.014;19.984;2023-12-20T10:39:33;1.52;;;1.52;;
67164;SDS011;54093;50.014;19.984;2023-12-20T10:48:55;2.00;;;1.90;;
67164;SDS011;54093;50.014;19.984;2023-12-20T10:58:17;2.03;;;1.92;;
67164;SDS011;54093;50.014;19.984;2023-12-20T11:07:43;2.20;;;2.10;;
67164;SDS011;54093;50.014;19.984;2023-12-20T11:17:24;2.00;;;1.90;;
67164;SDS011;54093;50.014;19.984;2023-12-20T11:26:47;2.42;;;2.22;;
67164;SDS011;54093;50.014;19.984;2023-12-20T11:36:13;1.58;;;1.52;;
67164;SDS011;54093;50.014;19.984;2023-12-20T11:45:42;3.10;;;2.90;;
67164;SDS011;54093;50.014;19.984;2023-12-20T11:55:10;1.45;;;1.45;;
67164;SDS011;54093;50.014;19.984;2023-12-20T12:04:32;0.82;;;0.82;;
67164;SDS011;54093;50.014;19.984;2023-12-20T12:13:53;1.55;;;1.50;;
67164;SDS011;54093;50.014;19.984;2023-12-20T12:23:14;2.00;;;1.88;;
67164;SDS011;54093;50.014;19.984;2023-12-20T12:32:35;1.00;;;1.00;;
67164;SDS011;54093;50.014;19.984;2023-12-20T12:41:57;3.03;;;1.20;;
67164;SDS011;54093;50.014;19.984;2023-12-20T12:51:18;1.73;;;1.63;;
67164;SDS011;54093;50.014;19.984;2023-12-20T13:00:39;1.88;;;1.77;;
67164;SDS011;54093;50.014;19.984;2023-12-20T13:10:00;2.72;;;2.63;;
67164;SDS011;54093;50.014;19.984;2023-12-20T13:19:21;1.65;;;1.55;;
67164;SDS011;54093;50.014;19.984;2023-12-20T13:28:42;3.03;;;2.03;;
67164;SDS011;54093;50.014;19.984;2023-12-20T13:38:03;2.50;;;2.38;;
67164;SDS011;54093;50.014;19.984;2023-12-20T13:47:24;1.95;;;1.85;;
67164;SDS011;54093;50.014;19.984;2023-12-20T13:56:45;2.72;;;2.53;;
67164;SDS011;54093;50.014;19.984;2023-12-20T14:06:06;9.35;;;2.20;;
67164;SDS011;54093;50.014;19.984;2023-12-20T14:15:27;2.42;;;2.33;;
67164;SDS011;54093;50.014;19.984;2023-12-20T14:24:48;3.45;;;3.25;;
67164;SDS011;54093;50.014;19.984;2023-12-20T14:34:09;2.88;;;2.60;;
67164;SDS011;54093;50.014;19.984;2023-12-20T14:43:30;3.67;;;2.40;;
67164;SDS011;54093;50.014;19.984;2023-12-20T14:52:51;3.65;;;3.35;;
67164;SDS011;54093;50.014;19.984;2023-12-20T15:02:14;2.85;;;2.75;;
67164;SDS011;54093;50.014;19.984;2023-12-20T15:11:36;2.60;;;2.40;;
67164;SDS011;54093;50.014;19.984;2023-12-20T15:20:57;3.65;;;3.42;;
67164;SDS011;54093;50.014;19.984;2023-12-20T15:30:19;3.35;;;3.15;;
67164;SDS011;54093;50.014;19.984;2023-12-20T15:39:43;3.65;;;2.90;;
67164;SDS011;54093;50.014;19.984;2023-12-20T15:49:04;2.00;;;1.90;;
67164;SDS011;54093;50.014;19.984;2023-12-20T15:58:25;2.65;;;2.42;;
67164;SDS011;54093;50.014;19.984;2023-12-20T16:07:47;7.03;;;3.50;;
67164;SDS011;54093;50.014;19.984;2023-12-20T16:17:08;5.13;;;3.78;;
67164;SDS011;54093;50.014;19.984;2023-12-20T16:26:29;4.00;;;3.70;;
67164;SDS011;54093;50.014;19.984;2023-12-20T16:35:50;4.35;;;4.05;;
67164;SDS011;54093;50.014;19.984;2023-12-20T16:45:11;3.28;;;3.08;;
67164;SDS011;54093;50.014;19.984;2023-12-20T16:54:33;4.93;;;4.53;;
67164;SDS011;54093;50.014;19.984;2023-12-20T17:03:55;2.47;;;2.38;;
67164;SDS011;54093;50.014;19.984;2023-12-20T17:13:16;4.43;;;2.88;;
67164;SDS011;54093;50.014;19.984;2023-12-20T17:22:37;3.53;;;3.28;;
67164;SDS011;54093;50.014;19.984;2023-12-20T17:31:58;2.55;;;2.35;;
67164;SDS011;54093;50.014;19.984;2023-12-20T17:41:19;3.30;;;3.00;;
67164;SDS011;54093;50.014;19.984;2023-12-20T17:50:44;3.67;;;3.38;;
67164;SDS011;54093;50.014;19.984;2023-12-20T18:00:12;3.65;;;2.30;;
67164;SDS011;54093;50.014;19.984;2023-12-20T18:09:38;2.85;;;2.65;;
67164;SDS011;54093;50.014;19.984;2023-12-20T18:19:14;3.13;;;2.92;;
67164;SDS011;54093;50.014;19.984;2023-12-20T18:28:37;2.75;;;2.55;;
67164;SDS011;54093;50.014;19.984;2023-12-20T18:37:58;5.22;;;3.97;;
67164;SDS011;54093;50.014;19.984;2023-12-20T18:47:19;2.72;;;2.53;;
67164;SDS011;54093;50.014;19.984;2023-12-20T18:56:40;5.07;;;4.53;;
67164;SDS011;54093;50.014;19.984;2023-12-20T19:06:03;7.18;;;2.45;;
67164;SDS011;54093;50.014;19.984;2023-12-20T19:15:24;2.35;;;2.25;;
67164;SDS011;54093;50.014;19.984;2023-12-20T19:24:45;2.17;;;2.05;;
67164;SDS011;54093;50.014;19.984;2023-12-20T19:34:16;2.75;;;2.47;;
67164;SDS011;54093;50.014;19.984;2023-12-20T19:43:38;2.78;;;2.58;;
67164;SDS011;54093;50.014;19.984;2023-12-20T19:53:02;1.80;;;1.70;;
67164;SDS011;54093;50.014;19.984;2023-12-20T20:02:25;2.47;;;1.33;;
67164;SDS011;54093;50.014;19.984;2023-12-20T20:11:48;1.65;;;1.55;;
67164;SDS011;54093;50.014;19.984;2023-12-20T20:21:10;1.33;;;1.23;;
67164;SDS011;54093;50.014;19.984;2023-12-20T20:30:32;3.83;;;1.80;;
67164;SDS011;54093;50.014;19.984;2023-12-20T20:39:53;2.00;;;1.90;;
67164;SDS011;54093;50.014;19.984;2023-12-20T20:49:14;1.50;;;1.40;;
67164;SDS011;54093;50.014;19.984;2023-12-20T20:58:36;2.17;;;2.08;;
67164;SDS011;54093;50.014;19.984;2023-12-20T21:07:57;2.83;;;1.90;;
67164;SDS011;54093;50.014;19.984;2023-12-20T21:17:19;2.33;;;2.13;;
67164;SDS011;54093;50.014;19.984;2023-12-20T21:26:40;3.63;;;2.72;;
67164;SDS011;54093;50.014;19.984;2023-12-20T21:36:01;0.80;;;0.80;;
67164;SDS011;54093;50.014;19.984;2023-12-20T21:45:22;3.15;;;1.63;;
67164;SDS011;54093;50.014;19.984;2023-12-20T21:54:44;1.17;;;1.17;;
67164;SDS011;54093;50.014;19.984;2023-12-20T22:04:05;0.82;;;0.82;;
67164;SDS011;54093;50.014;19.984;2023-12-20T22:13:26;2.97;;;1.35;;
67164;SDS011;54093;50.014;19.984;2023-12-20T22:22:51;2.67;;;1.50;;
67164;SDS011;54093;50.014;19.984;2023-12-20T22:32:12;1.10;;;1.10;;
67164;SDS011;54093;50.014;19.984;2023-12-20T22:41:34;1.63;;;1.50;;
67164;SDS011;54093;50.014;19.984;2023-12-20T22:50:56;1.02;;;1.02;;
67164;SDS011;54093;50.014;19.984;2023-12-20T23:00:17;0.60;;;0.60;;
67164;SDS011;54093;50.014;19.984;2023-12-20T23:09:42;1.20;;;1.15;;
67164;SDS011;54093;50.014;19.984;2023-12-20T23:19:03;1.38;;;1.27;;
67164;SDS011;54093;50.014;19.984;2023-12-20T23:28:24;0.82;;;0.82;;
67164;SDS011;54093;50.014;19.984;2023-12-20T23:37:45;1.20;;;1.20;;
67164;SDS011;54093;50.014;19.984;2023-12-20T23:47:06;1.88;;;1.52;;
67164;SDS011;54093;50.014;19.984;2023-12-20T23:56:28;1.20;;;1.10;;
